Decoded Metar for KFME (FORT MEADE in MD, USA) (IATA:N/A) | Meteo·Mobile Aviation Weather
aviador You're here:

KFME Decoded Metar

FORT MEADE in MD, USA
Report Time2019-02-16 17:42:00
UTC Time2019-02-16 17:56:29
Flight Rules vfr VFR
Wind010° at 07 kt
W.Decomp.*RWY 10: 1.2 kt HW 6.9 kt LCW
W.Rank010° ranks 23
Current wind is above 010° avg. (5.1)
Visibility9999 m
Phenomena:N/A
Clouds:N/A
Expected CloudBase > 4,000 ft AGL from Temp-Dew spread
CeilingNone
Temp04°C (ISA -11)
Dew Point-6°C (48% RH)
AAT-1.2°C
QNH1014 hPa
Density Alt-1,122 ft
Elevation151 ft
Report Wrong Elevation
Raw Report
KFME 161742Z AUTO 01007KT 330V050 10SM CLR 04/M06 A2993 RMK
AO1=

Extra information for KFME:More info

Metar Taf Metar & Taf Last 4 Metars F.Rules Stats Wind Profile Meteogram Temp Stats Airport Information Weather charts Add Link Nearby VenuesMetar ALERT Operation Metar Decoded Social comments

AIRNAV info for KFME